Flight Track Log - Related Links

Times and Time Zones

All times are in EDT time to prevent confusion due to time zone crossing. See the SWA662 flight status page for this flight to view local times or setup timezone preferences in your user account.

Time Position Orientation Groundspeed Altitude Reporting Facility
EDT Latitude Longitude Course Direction KTS MPH feet Rate Location/Type
Fri 11:10:05 PM 33.9500 -118.4500 259° West 160 184 1,300  Level Southern California TRACON
Fri 11:11:17 PM 33.9386 -118.5231 259° West 223 257 3,000 1,985 Climbing Los Angeles Center
Fri 11:12:18 PM 33.9306 -118.6058 263° West 247 284 5,700 2,683 Climbing Los Angeles Center
Fri 11:13:20 PM 33.8656 -118.6336 200° South 261 300 8,500 2,683 Climbing Los Angeles Center
Fri 11:14:21 PM 33.8308 -118.5767 126° Southeast 260 299 11,200 2,780 Climbing Los Angeles Center
Fri 11:15:23 PM 33.8764 -118.5097 51° Northeast 262 302 14,200 1,935 Climbing Los Angeles Center
Fri 11:16:25 PM 33.9281 -118.4400 48° Northeast 269 310 15,200 1,742 Climbing Los Angeles Center
Fri 11:17:27 PM 33.9767 -118.3581 54° Northeast 291 335 17,800 1,600 Climbing Los Angeles Center
Fri 11:18:40 PM 34.0292 -118.2642 56° Northeast 326 375 18,800 1,306 Climbing Los Angeles Center
Fri 11:19:54 PM 34.1022 -118.1336 56° Northeast 382 440 21,000 2,118 Climbing Los Angeles Center
Fri 11:20:56 PM 34.1783 -118.0000 55° Northeast 398 458 23,600 2,177 Climbing Los Angeles Center
Fri 11:21:58 PM 34.2444 -117.8864 55° Northeast 408 470 25,500 1,935 Climbing Los Angeles Center
Fri 11:23:00 PM 34.3367 -117.7578 49° Northeast 420 483 27,600 1,597 Climbing Los Angeles Center
Fri 11:24:02 PM 34.4022 -117.6619 50° Northeast 426 490 28,800 1,415 Climbing Los Angeles Center
Fri 11:25:03 PM 34.4794 -117.5492 50° Northeast 435 501 30,500 2,000 Climbing Los Angeles Center
Fri 11:26:05 PM 34.5700 -117.4186 50° Northeast 426 490 32,900 1,659 Climbing Los Angeles Center
Fri 11:27:06 PM 34.6433 -117.3094 51° Northeast 422 486 33,900 1,024 Climbing Los Angeles Center
Fri 11:28:08 PM 34.7194 -117.1986 50° Northeast 430 495 35,000 532 Climbing Los Angeles Center
Fri 11:29:10 PM 34.7953 -117.0883 50° Northeast 429 494 35,000  Level Los Angeles Center
Fri 11:30:11 PM 34.8703 -116.9781 50° Northeast 426 490 35,000  Level Los Angeles Center
Fri 11:31:13 PM 34.9461 -116.8675 50° Northeast 427 491 35,000  Level Los Angeles Center
Fri 11:32:14 PM 35.0347 -116.7347 51° Northeast 420 483 35,000  Level Los Angeles Center
Fri 11:33:16 PM 35.1089 -116.6267 50° Northeast 420 483 35,000  Level Los Angeles Center
Fri 11:34:18 PM 35.1811 -116.5183 51° Northeast 415 478 35,000  Level Los Angeles Center
Fri 11:35:19 PM 35.2383 -116.4331 51° Northeast 411 473 35,000  Level Los Angeles Center
Fri 11:36:21 PM 35.3231 -116.3067 51° Northeast 406 467 35,000  Level Los Angeles Center
Fri 11:37:22 PM 35.3936 -116.2019 50° Northeast 403 464 35,000  Level Los Angeles Center
Fri 11:38:24 PM 35.4775 -116.0747 51° Northeast 401 461 35,000  Level Los Angeles Center
Fri 11:39:26 PM 35.5478 -115.9683 51° Northeast 401 461 35,000  Level Los Angeles Center
Fri 11:40:27 PM 35.6183 -115.8594 51° Northeast 404 465 35,000  Level Los Angeles Center
Fri 11:41:29 PM 35.6894 -115.7578 49° Northeast 399 459 35,000  Level Los Angeles Center
Fri 11:42:30 PM 35.7586 -115.6522 51° Northeast 397 457 35,000  Level Los Angeles Center
Fri 11:43:32 PM 35.8275 -115.5456 51° Northeast 398 458 35,000  Level Los Angeles Center
Fri 11:44:34 PM 35.8969 -115.4417 50° Northeast 397 457 35,000  Level Los Angeles Center
Fri 11:45:35 PM 35.9656 -115.3367 51° Northeast 396 456 35,000  Level Los Angeles Center
Fri 11:46:37 PM 36.0475 -115.2097 51° Northeast 398 458 35,000  Level Los Angeles Center
Fri 11:47:39 PM 36.1011 -115.0897 61° Northeast 401 461 35,000  Level Los Angeles Center
Fri 11:48:40 PM 36.1394 -114.9619 70° East 399 459 35,000  Level Los Angeles Center
Fri 11:49:42 PM 36.1794 -114.8344 69° East 399 459 35,000  Level Los Angeles Center
Fri 11:50:44 PM 36.2192 -114.7053 69° East 402 463 35,000  Level Los Angeles Center
Fri 11:51:46 PM 36.2658 -114.5489 70° East 403 464 35,000  Level Los Angeles Center
Fri 11:52:47 PM 36.2975 -114.4439 69° East 406 467 35,000  Level Los Angeles Center
Fri 11:53:49 PM 36.3461 -114.2869 69° East 406 467 35,000  Level Los Angeles Center
Fri 11:54:51 PM 36.3892 -114.1564 68° East 409 471 35,000  Level Los Angeles Center
Fri 11:55:52 PM 36.4261 -114.0525 66° East 411 473 35,000  Level Los Angeles Center
Fri 11:56:54 PM 36.4803 -113.8975 66° East 409 471 35,000  Level Los Angeles Center
Fri 11:57:56 PM 36.5308 -113.7508 67° East 407 468 35,000  Level Los Angeles Center
Fri 11:58:58 PM 36.5750 -113.6217 67° East 407 468 35,000  Level Los Angeles Center
Fri 11:59:59 PM 36.6203 -113.4919 66° East 409 471 35,000  Level Los Angeles Center
Sat 12:01:01 AM 36.6642 -113.3597 67° East 413 475 35,000  Level Los Angeles Center
Sat 12:02:02 AM 36.7008 -113.2547 66° East 414 476 35,000  Level Los Angeles Center
Sat 12:03:04 AM 36.7542 -113.0981 67° East 413 475 35,000  Level Los Angeles Center
Sat 12:04:06 AM 36.8069 -112.9417 67° East 410 472 35,000  Level Los Angeles Center
Sat 12:05:08 AM 36.8517 -112.8094 67° East 414 476 35,000  Level Los Angeles Center
Sat 12:06:09 AM 36.8958 -112.6775 67° East 414 476 35,000  Level Los Angeles Center
Sat 12:07:11 AM 36.9400 -112.5472 67° East 411 473 35,000  Level Los Angeles Center
Sat 12:08:13 AM 36.9842 -112.4156 67° East 413 475 35,000  Level Los Angeles Center
Sat 12:09:15 AM 37.0364 -112.2575 67° East 413 475 35,000  Level Los Angeles Center
Sat 12:10:16 AM 37.0714 -112.1539 67° East 409 471 35,000  Level Los Angeles Center
Sat 12:11:18 AM 37.1219 -111.9939 68° East 414 476 35,000  Level Los Angeles Center
Sat 12:12:20 AM 37.1672 -111.8614 67° East 416 479 35,000  Level Los Angeles Center
Sat 12:13:03 AM 37.2028 -111.7528 68° East 418 481 35,000  Level Denver Center
Sat 12:14:05 AM 37.2436 -111.6214 69° East 411 473 35,000  Level Denver Center
Sat 12:15:06 AM 37.2856 -111.4881 68° East 411 473 35,000  Level Denver Center
Sat 12:16:07 AM 37.3294 -111.3522 68° East 420 483 35,000  Level Denver Center
Sat 12:17:08 AM 37.3739 -111.2156 68° East 424 488 35,000  Level Denver Center
Sat 12:18:09 AM 37.4167 -111.0797 68° East 420 483 35,000  Level Denver Center
Sat 12:19:23 AM 37.4672 -110.9175 69° East 417 480 35,000  Level Denver Center
Sat 12:20:24 AM 37.5106 -110.7819 68° East 418 481 35,000  Level Denver Center
Sat 12:21:25 AM 37.5614 -110.6158 69° East 423 487 35,000  Level Denver Center
Sat 12:22:26 AM 37.5992 -110.4936 69° East 427 491 35,000  Level Denver Center
Sat 12:23:28 AM 37.6469 -110.3381 69° East 425 489 35,000  Level Denver Center
Sat 12:24:29 AM 37.6881 -110.2061 68° East 423 487 35,000  Level Denver Center
Sat 12:25:30 AM 37.7353 -110.0506 69° East 425 489 35,000  Level Denver Center
Sat 12:26:31 AM 37.7758 -109.9178 69° East 423 487 35,000  Level Denver Center
Sat 12:27:33 AM 37.8161 -109.7847 69° East 423 487 35,000  Level Denver Center
Sat 12:28:34 AM 37.8636 -109.6272 69° East 428 493 35,000  Level Denver Center
Sat 12:29:35 AM 37.9039 -109.4931 69° East 427 491 35,000  Level Denver Center
Sat 12:30:36 AM 37.9444 -109.3581 69° East 427 491 35,000  Level Denver Center
Sat 12:31:37 AM 37.9919 -109.2008 69° East 428 493 35,000  Level Denver Center
Sat 12:32:38 AM 38.0308 -109.0642 70° East 430 495 35,000  Level Denver Center
Sat 12:33:39 AM 38.0719 -108.9231 70° East 433 498 35,000  Level Denver Center
Sat 12:34:41 AM 38.1172 -108.7656 70° East 430 495 35,000  Level Denver Center
Sat 12:35:42 AM 38.1564 -108.6297 70° East 429 494 35,000  Level Denver Center
Sat 12:36:43 AM 38.1967 -108.4950 69° East 427 491 35,000  Level Denver Center
Sat 12:37:44 AM 38.2422 -108.3347 70° East 432 497 35,000  Level Denver Center
Sat 12:38:45 AM 38.2817 -108.1978 70° East 432 497 35,000  Level Denver Center
Sat 12:39:46 AM 38.3264 -108.0372 70° East 434 499 35,000  Level Denver Center
Sat 12:40:59 AM 38.3658 -107.9000 70° East 431 496 35,000  Level Denver Center
Sat 12:42:00 AM 38.4178 -107.7153 70° East 435 501 35,000  Level Denver Center
Sat 12:43:01 AM 38.4578 -107.5778 70° East 432 497 35,000  Level Denver Center
Sat 12:44:03 AM 38.5144 -107.4547 59° Northeast 424 488 35,000  Level Denver Center
Sat 12:45:04 AM 38.5800 -107.3078 60° Northeast 427 491 35,000  Level Denver Center
Sat 12:46:05 AM 38.6389 -107.1756 60° Northeast 423 487 35,000  Level Denver Center
Sat 12:47:06 AM 38.6972 -107.0450 60° Northeast 425 489 35,000  Level Denver Center
Sat 12:48:07 AM 38.7558 -106.9136 60° Northeast 425 489 35,000  Level Denver Center
Sat 12:49:08 AM 38.8133 -106.7822 61° Northeast 426 490 35,000  Level Denver Center
Sat 12:50:09 AM 38.8700 -106.6517 61° Northeast 422 486 35,000  Level Denver Center
Sat 12:51:09 AM 38.9328 -106.5169 59° Northeast 421 484 35,000 -198 Level Denver Center
Sat 12:52:10 AM 38.9914 -106.3939 58° Northeast 423 487 34,600 -1,672 Descending Denver Center
Sat 12:53:11 AM 39.0553 -106.2492 60° Northeast 419 482 31,600 -2,410 Descending Denver Center
Sat 12:54:12 AM 39.1103 -106.1283 60° Northeast 416 479 29,700 -1,820 Descending Denver Center
Sat 12:55:13 AM 39.1650 -106.0044 60° Northeast 403 464 27,900 -1,869 Descending Denver Center
Sat 12:56:14 AM 39.2178 -105.8842 60° Northeast 390 449 25,900 -1,869 Descending Denver Center
Sat 12:57:15 AM 39.2689 -105.7672 61° Northeast 379 436 24,100 -1,587 Descending Denver Center
Sat 12:58:15 AM 39.3214 -105.6497 60° Northeast 377 434 22,700 -1,438 Descending Denver Center
Sat 12:59:16 AM 39.3722 -105.5322 61° Northeast 376 433 21,200 -1,377 Descending Denver Center
Sat 01:00:17 AM 39.4317 -105.4094 58° Northeast 348 400 19,900 -1,279 Descending Denver Center
Sat 01:01:18 AM 39.4856 -105.3122 54° Northeast 337 388 18,600 -1,339 Descending Denver Center
Sat 01:02:18 AM 39.5350 -105.2125 57° Northeast 330 380 17,200 -793 Descending Denver Center
Sat 01:03:19 AM 39.5858 -105.1203 54° Northeast 317 365 17,000 -148 Descending Denver Center
Sat 01:04:20 AM 39.6344 -105.0236 57° Northeast 322 371 16,900 -934 Descending Denver Center
Sat 01:05:21 AM 39.7117 -104.9722 27° Northeast 313 360 15,100 -1,636 Descending Denver Center
Sat 01:06:21 AM 39.7858 -104.9233 27° Northeast 301 346 13,600 -1,438 Descending Denver Center
Sat 01:07:22 AM 39.8597 -104.8772 26° Northeast 295 339 12,200 -1,686 Descending Denver Center
Sat 01:08:22 AM 39.9228 -104.8361 27° Northeast 251 289 10,200 -1,785 Descending Denver Center
Sat 01:09:23 AM 39.9817 -104.7986 26° Northeast 236 272 8,600 -1,328 Descending Denver Center
Sat 01:10:24 AM 39.9850 -104.7211 87° East 219 252 7,500 -1,091 Descending Denver Center
Sat 01:11:24 AM 39.9486 -104.6858 143° Southeast 159 183 6,400 -942 Descending Denver Center
Sat 01:12:25 AM 39.9061 -104.6867 181° South 152 175 5,600 -787 Descending Denver Center
Sat 01:14:00 AM 39.8617 -104.6732 180° South  Level Estimated
Sat 01:21:00 AM 39.8617 -104.6732 180° South  Level Estimated
Sat 01:22:00 AM 39.8617 -104.6732 180° South  Level Estimated
Sat 01:23:00 AM 39.8617 -104.6732 180° South  Level Estimated

Login

Don't have an account? Register now (free) for customized features, flight alerts, and more!